Time;durP1;ratioP1;P1;durP2;ratioP2;P2;SDS_P1;SDS_P2;PMS_P1;PMS_P2;Temp;Humidity;BMP_temperature;BMP_pressure;BME280_temperature;BME280_humidity;BME280_pressure;Samples;Min_cycle;Max_cycle;Signal;HPM_P1;HPM_P2
2021/05/22 00:00:25;;;;;;;;;;;;;;;16.99;48.70;100014.63;5033103;27;98980;-77
2021/05/22 00:02:51;;;;;;;;;;;;;;;17.16;48.92;100020.50;5034809;27;100835;-77
2021/05/22 00:05:18;;;;;;;;;;;;;;;17.58;47.02;100014.63;5030947;27;97134;-77
2021/05/22 00:07:43;;;;;;;;;;;;;;;17.13;48.54;100011.75;5029970;27;97850;-77
2021/05/22 00:10:11;;;;;;;;;;;;;;;17.48;47.89;100000.25;5030257;27;98969;-77
2021/05/22 00:12:37;;;;;;;;;;;;;;;17.64;46.76;100000.00;5027709;27;99158;-78
2021/05/22 00:15:03;;;;;;;;;;;;;;;17.45;46.42;99998.69;5027786;27;96856;-77
2021/05/22 00:17:29;;;;;;;;;;;;;;;17.09;47.66;99993.41;5034608;27;97115;-78
2021/05/22 00:19:55;;;;;;;;;;;;;;;16.74;47.46;99994.19;5026344;27;98966;-76
2021/05/22 00:22:21;;;;;;;;;;;;;;;17.14;45.54;99981.44;5030913;27;99314;-78
2021/05/22 00:24:47;;;;;;;;;;;;;;;17.17;45.54;99984.84;5032011;27;98858;-78
2021/05/22 00:27:13;;;;;;;;;;;;;;;17.35;44.80;99970.97;5031395;27;97714;-78
2021/05/22 00:29:39;;;;;;;;;;;;;;;17.45;43.91;99957.78;5040291;27;97878;-77
2021/05/22 00:32:05;;;;;;;;;;;;;;;17.42;43.79;99960.66;5035497;27;101449;-79
2021/05/22 00:34:31;;;;;;;;;;;;;;;17.56;43.62;99952.47;5035096;27;96825;-79
2021/05/22 00:36:56;;;;;;;;;;;;;;;17.58;43.81;99947.00;5032316;27;96902;-78
2021/05/22 00:39:23;;;;;;;;;;;;;;;17.64;43.79;99952.75;5032257;27;99378;-78
2021/05/22 00:41:49;;;;;;;;;;;;;;;17.43;44.42;99955.22;5033137;28;98958;-77
2021/05/22 00:44:14;;;;;;;;;;;;;;;17.26;44.46;99950.31;5030854;27;98421;-79
2021/05/22 00:46:40;;;;;;;;;;;;;;;17.26;44.64;99953.00;5035464;27;97417;-78
2021/05/22 00:49:06;;;;;;;;;;;;;;;16.98;45.07;99962.19;5035961;27;97765;-78
2021/05/22 00:51:32;;;;;;;;;;;;;;;16.89;46.69;99952.19;5036039;27;98709;-77
2021/05/22 00:53:58;;;;;;;;;;;;;;;16.74;47.52;99953.31;5035978;27;98042;-77
2021/05/22 00:56:24;;;;;;;;;;;;;;;16.78;47.23;99954.81;5031643;27;98631;-77
2021/05/22 00:58:50;;;;;;;;;;;;;;;16.66;47.38;99950.38;5021762;27;99197;-78
2021/05/22 01:01:16;;;;;;;;;;;;;;;16.46;47.62;99956.28;5021208;27;99015;-78
2021/05/22 01:03:43;;;;;;;;;;;;;;;16.37;48.59;99947.13;5035748;27;96804;-78
2021/05/22 01:06:11;;;;;;;;;;;;;;;16.74;47.03;99945.31;5033923;27;97686;-78
2021/05/22 01:08:37;;;;;;;;;;;;;;;16.52;47.06;99961.16;5033066;27;99101;-78
2021/05/22 01:11:07;;;;;;;;;;;;;;;16.51;46.32;99941.63;5029984;28;98844;-78
2021/05/22 01:13:35;;;;;;;;;;;;;;;16.36;46.70;99945.41;5035668;27;96904;-77
2021/05/22 01:16:01;;;;;;;;;;;;;;;16.24;45.23;99947.13;5033116;27;96878;-77
2021/05/22 01:18:27;;;;;;;;;;;;;;;16.48;44.29;99951.66;5035478;27;98838;-77
2021/05/22 01:20:55;;;;;;;;;;;;;;;16.64;44.53;99949.63;5032710;27;98962;-77
2021/05/22 01:23:25;;;;;;;;;;;;;;;16.28;45.46;99943.28;5034860;27;96703;-77
2021/05/22 01:25:52;;;;;;;;;;;;;;;16.43;43.71;99929.81;5034561;27;97673;-77
2021/05/22 01:28:19;;;;;;;;;;;;;;;16.65;42.50;99919.34;5033496;27;98935;-78
2021/05/22 01:30:46;;;;;;;;;;;;;;;16.61;43.17;99937.34;5035880;27;98816;-79
2021/05/22 01:33:12;;;;;;;;;;;;;;;16.71;43.56;99941.06;5036919;27;96717;-78
2021/05/22 01:35:38;;;;;;;;;;;;;;;16.50;43.86;99936.41;5035560;27;97093;-78
2021/05/22 01:38:04;;;;;;;;;;;;;;;16.34;43.78;99929.50;5035045;27;99647;-78
2021/05/22 01:40:30;;;;;;;;;;;;;;;16.33;43.60;99942.97;5037183;27;98960;-78
2021/05/22 01:42:57;;;;;;;;;;;;;;;16.29;43.18;99945.00;5034514;27;97049;-79
2021/05/22 01:45:25;;;;;;;;;;;;;;;16.23;43.67;99944.56;5036732;28;97118;-79
2021/05/22 01:47:53;;;;;;;;;;;;;;;16.31;43.42;99942.22;5035660;27;99410;-78
2021/05/22 01:50:19;;;;;;;;;;;;;;;16.56;42.37;99933.28;5042597;28;98921;-78
2021/05/22 01:52:47;;;;;;;;;;;;;;;16.45;42.57;99933.22;5046427;27;98796;-78
2021/05/22 01:55:13;;;;;;;;;;;;;;;16.47;42.12;99931.31;5045713;27;96787;-77
2021/05/22 01:57:40;;;;;;;;;;;;;;;16.71;41.33;99924.22;5047193;27;97940;-76
2021/05/22 02:00:08;;;;;;;;;;;;;;;16.55;41.82;99928.91;5050867;27;99805;-77
2021/05/22 02:02:34;;;;;;;;;;;;;;;16.57;41.70;99930.53;5052950;27;96862;-77
2021/05/22 02:05:01;;;;;;;;;;;;;;;16.53;41.66;99922.88;5054367;27;96601;-78
2021/05/22 02:07:28;;;;;;;;;;;;;;;16.56;41.51;99923.47;5033547;28;97959;-78
2021/05/22 02:09:54;;;;;;;;;;;;;;;16.55;41.51;99928.91;5037868;27;97806;-78
2021/05/22 02:12:21;;;;;;;;;;;;;;;16.50;41.86;99923.06;5037687;27;96876;-77
2021/05/22 02:14:47;;;;;;;;;;;;;;;16.26;42.54;99934.56;5032798;27;98604;-77
2021/05/22 02:17:19;;;;;;;;;;;;;;;16.42;42.09;99928.97;5034462;27;97863;-78
2021/05/22 02:19:46;;;;;;;;;;;;;;;16.60;42.01;99927.69;5039568;27;98860;-78
2021/05/22 02:22:16;;;;;;;;;;;;;;;16.57;41.74;99932.34;5036272;27;98120;-78
2021/05/22 02:24:42;;;;;;;;;;;;;;;16.75;41.45;99925.69;5036125;27;98034;-78
2021/05/22 02:27:08;;;;;;;;;;;;;;;16.60;41.35;99929.50;5035254;27;99147;-77
2021/05/22 02:29:36;;;;;;;;;;;;;;;16.65;41.89;99932.66;5034436;27;98704;-78
2021/05/22 02:32:02;;;;;;;;;;;;;;;16.48;42.13;99938.31;5036029;27;96905;-79
2021/05/22 02:34:30;;;;;;;;;;;;;;;16.60;42.05;99940.16;5035779;27;97021;-78
2021/05/22 02:36:56;;;;;;;;;;;;;;;16.57;42.10;99943.00;5033106;27;98895;-77
2021/05/22 02:39:22;;;;;;;;;;;;;;;16.53;42.10;99949.53;5035031;27;99215;-78
2021/05/22 02:41:49;;;;;;;;;;;;;;;16.39;42.46;99953.19;5034620;27;96890;-77
2021/05/22 02:44:16;;;;;;;;;;;;;;;16.45;42.72;99946.56;5033891;27;96841;-77
2021/05/22 02:46:44;;;;;;;;;;;;;;;16.64;42.16;99945.16;5035279;27;98960;-77
2021/05/22 02:49:12;;;;;;;;;;;;;;;16.62;42.13;99952.41;5035146;27;98576;-78
2021/05/22 02:51:39;;;;;;;;;;;;;;;16.61;42.30;99950.69;5036306;27;96952;-78
2021/05/22 02:54:06;;;;;;;;;;;;;;;16.56;42.57;99949.28;5035441;28;96908;-78
2021/05/22 02:56:32;;;;;;;;;;;;;;;16.20;43.55;99948.34;5034181;27;98812;-78
2021/05/22 02:58:58;;;;;;;;;;;;;;;16.31;43.46;99950.22;5033150;27;99295;-78
2021/05/22 03:01:25;;;;;;;;;;;;;;;16.37;43.33;99959.59;5034216;27;97403;-78
2021/05/22 03:03:52;;;;;;;;;;;;;;;16.38;43.55;99951.50;5035977;27;96868;-78
2021/05/22 03:06:18;;;;;;;;;;;;;;;16.51;43.49;99954.13;5032441;27;100765;-78
2021/05/22 03:08:45;;;;;;;;;;;;;;;16.58;43.36;99950.91;5033190;27;98955;-78
2021/05/22 03:11:12;;;;;;;;;;;;;;;16.65;43.45;99946.84;5033094;27;97365;-78
2021/05/22 03:13:38;;;;;;;;;;;;;;;16.60;43.47;99945.50;5035902;27;97016;-78
2021/05/22 03:16:04;;;;;;;;;;;;;;;16.74;43.26;99950.66;5033375;27;98772;-77
2021/05/22 03:18:29;;;;;;;;;;;;;;;16.62;43.43;99943.53;5028878;27;97735;-79
2021/05/22 03:20:55;;;;;;;;;;;;;;;16.63;43.54;99947.94;5034827;27;97291;-77
2021/05/22 03:23:21;;;;;;;;;;;;;;;16.55;43.61;99939.59;5048968;27;96748;-77
2021/05/22 03:25:47;;;;;;;;;;;;;;;16.41;44.08;99937.09;5051602;27;97733;-77
2021/05/22 03:28:13;;;;;;;;;;;;;;;16.50;44.12;99941.75;5053347;28;97808;-78
2021/05/22 03:30:39;;;;;;;;;;;;;;;16.67;43.93;99944.91;5055852;28;97623;-78
2021/05/22 03:33:05;;;;;;;;;;;;;;;16.43;44.42;99946.66;5055471;27;96646;-78
2021/05/22 03:35:31;;;;;;;;;;;;;;;16.70;44.12;99946.50;5054170;27;98033;-78
2021/05/22 03:37:56;;;;;;;;;;;;;;;16.65;44.26;99951.34;5054151;27;98014;-78
2021/05/22 03:40:22;;;;;;;;;;;;;;;16.60;44.41;99948.16;5049770;27;97280;-77
2021/05/22 03:42:49;;;;;;;;;;;;;;;16.56;44.77;99947.47;5036591;28;97145;-77
2021/05/22 03:45:15;;;;;;;;;;;;;;;16.58;44.80;99958.06;5033260;27;98850;-78
2021/05/22 03:47:40;;;;;;;;;;;;;;;16.57;44.79;99956.34;5035575;27;97619;-77
2021/05/22 03:50:07;;;;;;;;;;;;;;;16.72;44.70;99955.25;5034302;27;96861;-77
2021/05/22 03:52:33;;;;;;;;;;;;;;;16.64;45.17;99955.81;5045148;28;97356;-76
2021/05/22 03:54:58;;;;;;;;;;;;;;;16.82;44.84;99953.63;5044461;27;97827;-76
2021/05/22 03:57:24;;;;;;;;;;;;;;;16.77;45.14;99961.09;5031560;28;97800;-77
2021/05/22 03:59:51;;;;;;;;;;;;;;;16.69;45.45;99961.66;5032334;27;97825;-76
2021/05/22 04:02:17;;;;;;;;;;;;;;;16.74;45.31;99969.31;5033811;27;96853;-76
2021/05/22 04:04:43;;;;;;;;;;;;;;;16.80;45.22;99968.91;5033525;27;99195;-77
2021/05/22 04:07:08;;;;;;;;;;;;;;;16.74;45.38;99966.66;5031595;27;102581;-78
2021/05/22 04:09:34;;;;;;;;;;;;;;;17.02;45.32;99970.81;5021094;27;96659;-77
2021/05/22 04:12:00;;;;;;;;;;;;;;;16.93;45.33;99977.72;5026424;27;97939;-78
2021/05/22 04:14:28;;;;;;;;;;;;;;;17.22;44.96;99964.00;5027522;28;99339;-78
2021/05/22 04:16:55;;;;;;;;;;;;;;;17.13;45.14;99971.72;5033467;27;98820;-77
2021/05/22 04:19:21;;;;;;;;;;;;;;;17.06;45.49;99973.16;5033149;27;96903;-77
2021/05/22 04:21:46;;;;;;;;;;;;;;;17.17;45.27;99984.84;5032476;27;98402;-77
2021/05/22 04:24:12;;;;;;;;;;;;;;;17.30;45.19;99980.28;5032359;27;98839;-77
2021/05/22 04:26:38;;;;;;;;;;;;;;;17.41;45.04;99985.66;5032861;28;98904;-78
2021/05/22 04:29:04;;;;;;;;;;;;;;;17.16;45.67;99983.13;5032172;27;96863;-77
2021/05/22 04:31:30;;;;;;;;;;;;;;;17.12;45.63;99975.38;5032742;27;97560;-76
2021/05/22 04:33:56;;;;;;;;;;;;;;;17.34;45.33;99965.72;5032951;27;98834;-77
2021/05/22 04:36:22;;;;;;;;;;;;;;;17.36;45.39;99972.66;5032369;27;98762;-78
2021/05/22 04:38:48;;;;;;;;;;;;;;;17.35;45.36;99967.44;5032192;27;96795;-78
2021/05/22 04:41:14;;;;;;;;;;;;;;;17.51;45.02;99965.31;5033554;27;96945;-78
2021/05/22 04:43:39;;;;;;;;;;;;;;;17.57;45.00;99972.00;5033043;27;98973;-78
2021/05/22 04:46:05;;;;;;;;;;;;;;;17.42;45.33;99966.00;5033280;28;99087;-77
2021/05/22 04:48:31;;;;;;;;;;;;;;;17.62;45.16;99964.53;5025211;27;96831;-78
2021/05/22 04:50:58;;;;;;;;;;;;;;;17.87;44.63;99975.88;5031349;27;97045;-78
2021/05/22 04:53:24;;;;;;;;;;;;;;;17.81;44.68;99971.00;5031252;27;101916;-78
2021/05/22 04:55:49;;;;;;;;;;;;;;;17.82;44.53;99969.19;5032702;27;99191;-78
2021/05/22 04:58:15;;;;;;;;;;;;;;;18.01;44.15;99974.78;5030626;27;98568;-78
2021/05/22 05:00:41;;;;;;;;;;;;;;;17.99;44.48;99967.84;5034625;27;96785;-77
2021/05/22 05:03:07;;;;;;;;;;;;;;;17.83;44.93;99971.75;5033189;28;98001;-78
2021/05/22 05:05:33;;;;;;;;;;;;;;;18.05;44.46;99970.06;5034483;27;100715;-77
2021/05/22 05:08:00;;;;;;;;;;;;;;;18.02;44.39;99973.81;5034192;28;97164;-78
2021/05/22 05:10:26;;;;;;;;;;;;;;;17.99;44.52;99973.19;5035246;27;96886;-78
2021/05/22 05:12:53;;;;;;;;;;;;;;;18.20;44.26;99963.50;5029287;27;98971;-77
2021/05/22 05:15:19;;;;;;;;;;;;;;;18.48;43.36;99954.97;5034158;27;98948;-77
2021/05/22 05:17:45;;;;;;;;;;;;;;;18.52;43.39;99966.25;5036174;27;96911;-78
2021/05/22 05:20:11;;;;;;;;;;;;;;;18.55;43.47;99964.25;5039488;27;96825;-78
2021/05/22 05:22:37;;;;;;;;;;;;;;;18.79;42.96;99964.06;5035965;27;99535;-77
2021/05/22 05:25:04;;;;;;;;;;;;;;;18.41;43.66;99971.63;5042598;27;99172;-77
2021/05/22 05:27:30;;;;;;;;;;;;;;;17.86;45.14;99975.97;5046395;27;97216;-77
2021/05/22 05:29:56;;;;;;;;;;;;;;;18.17;44.53;99966.44;5048468;27;96784;-77
2021/05/22 05:32:22;;;;;;;;;;;;;;;18.27;44.34;99983.44;5052142;27;98786;-77
2021/05/22 05:34:47;;;;;;;;;;;;;;;18.44;43.82;99984.78;5050887;27;98864;-76
2021/05/22 05:37:13;;;;;;;;;;;;;;;18.20;44.18;99987.56;5052446;27;96953;-77
2021/05/22 05:39:39;;;;;;;;;;;;;;;18.26;44.41;99979.06;5043373;27;96856;-77
2021/05/22 05:42:06;;;;;;;;;;;;;;;17.25;46.84;99972.63;5035229;27;99348;-77
2021/05/22 05:44:32;;;;;;;;;;;;;;;17.70;46.05;99984.34;5036046;27;98829;-77
2021/05/22 05:46:58;;;;;;;;;;;;;;;17.47;46.29;99993.22;5031387;28;97489;-78
2021/05/22 05:49:28;;;;;;;;;;;;;;;17.29;46.88;99998.13;5031433;27;96906;-78
2021/05/22 05:51:54;;;;;;;;;;;;;;;17.06;47.33;100004.34;5035303;27;98956;-77
2021/05/22 05:54:20;;;;;;;;;;;;;;;16.88;48.75;99981.66;5034780;27;98929;-78
2021/05/22 05:56:45;;;;;;;;;;;;;;;17.02;48.92;99993.03;5036603;27;96803;-77
2021/05/22 05:59:12;;;;;;;;;;;;;;;17.11;48.56;99997.69;5034210;27;97456;-77
2021/05/22 06:01:38;;;;;;;;;;;;;;;17.26;48.98;99994.84;5029778;28;99077;-77
2021/05/22 06:04:05;;;;;;;;;;;;;;;17.47;48.33;100009.22;5050159;27;98453;-77
2021/05/22 06:06:31;;;;;;;;;;;;;;;17.76;47.36;100013.25;5045353;28;96617;-78
2021/05/22 06:08:57;;;;;;;;;;;;;;;18.01;46.72;100008.69;5035571;27;97311;-78
2021/05/22 06:11:24;;;;;;;;;;;;;;;17.90;46.62;100006.84;5034397;28;100722;-77
2021/05/22 06:13:50;;;;;;;;;;;;;;;18.08;46.15;99994.72;5035522;28;100283;-77
2021/05/22 06:16:23;;;;;;;;;;;;;;;18.12;45.92;99990.84;5033669;28;96762;-77
2021/05/22 06:18:49;;;;;;;;;;;;;;;18.21;46.59;99994.63;5035876;28;96888;-77
2021/05/22 06:21:15;;;;;;;;;;;;;;;18.11;46.66;99990.97;5027253;27;98303;-78
2021/05/22 06:23:41;;;;;;;;;;;;;;;18.36;46.63;99992.56;5036106;27;99051;-78
2021/05/22 06:26:07;;;;;;;;;;;;;;;18.13;47.26;100000.56;5032494;27;97604;-76
2021/05/22 06:28:33;;;;;;;;;;;;;;;18.02;47.25;100011.25;5045477;27;96834;-78
2021/05/22 06:31:00;;;;;;;;;;;;;;;18.40;46.53;100008.22;5058065;27;97931;-77
2021/05/22 06:33:27;;;;;;;;;;;;;;;18.31;46.63;100007.13;5058557;27;97760;-78
2021/05/22 06:35:53;;;;;;;;;;;;;;;18.58;46.32;100019.31;5050925;27;98421;-77
2021/05/22 06:38:19;;;;;;;;;;;;;;;19.03;45.81;100014.75;5032321;27;97091;-78
2021/05/22 06:40:45;;;;;;;;;;;;;;;19.32;45.15;100010.53;5029197;27;97772;-78
2021/05/22 06:43:11;;;;;;;;;;;;;;;19.53;44.43;100017.78;5032234;27;98827;-78
2021/05/22 06:45:42;;;;;;;;;;;;;;;19.68;44.07;100021.84;5031684;27;97310;-79
2021/05/22 06:48:09;;;;;;;;;;;;;;;20.12;43.50;100016.22;5031552;27;97504;-78
2021/05/22 06:50:36;;;;;;;;;;;;;;;19.82;43.80;100008.94;5030099;27;98972;-75
2021/05/22 06:53:02;;;;;;;;;;;;;;;19.77;44.24;100002.28;5029566;27;98872;-77
2021/05/22 06:55:28;;;;;;;;;;;;;;;19.59;44.40;100012.75;5033625;28;96800;-79
2021/05/22 06:57:55;;;;;;;;;;;;;;;19.61;44.23;100015.31;5033238;27;97328;-78
2021/05/22 07:00:21;;;;;;;;;;;;;;;20.16;43.31;100009.59;5035051;27;98892;-79
2021/05/22 07:02:48;;;;;;;;;;;;;;;20.14;42.55;100010.72;5030294;27;99248;-79
2021/05/22 07:05:14;;;;;;;;;;;;;;;20.06;42.46;100013.22;5031365;27;96911;-79
2021/05/22 07:07:42;;;;;;;;;;;;;;;19.85;43.54;100014.06;5032634;27;97966;-79
2021/05/22 07:10:09;;;;;;;;;;;;;;;19.63;43.53;100024.03;5031124;27;99320;-79
2021/05/22 07:12:35;;;;;;;;;;;;;;;19.36;43.39;100028.03;5034656;27;98964;-80
2021/05/22 07:15:01;;;;;;;;;;;;;;;19.69;43.03;100023.56;5031842;28;96867;-79
2021/05/22 07:17:27;;;;;;;;;;;;;;;20.10;42.50;100025.38;5033124;27;96855;-79
2021/05/22 07:19:52;;;;;;;;;;;;;;;20.47;42.08;100021.22;5028801;28;98822;-80
2021/05/22 07:22:18;;;;;;;;;;;;;;;20.68;41.06;100021.13;5032278;28;99067;-78
2021/05/22 07:24:47;;;;;;;;;;;;;;;20.36;41.64;100013.25;5028913;28;96912;-78
2021/05/22 07:27:14;;;;;;;;;;;;;;;20.38;41.47;100030.06;5022591;28;97887;-78
2021/05/22 07:29:40;;;;;;;;;;;;;;;20.13;41.46;100023.28;5024618;28;99562;-80
2021/05/22 07:32:06;;;;;;;;;;;;;;;19.74;42.35;100022.19;5031835;27;98812;-78
2021/05/22 07:34:32;;;;;;;;;;;;;;;19.87;42.24;100038.06;5032440;27;97787;-79
2021/05/22 07:36:57;;;;;;;;;;;;;;;19.52;41.48;100043.72;5029536;27;97303;-76
2021/05/22 07:39:23;;;;;;;;;;;;;;;19.02;42.31;100037.16;5031264;27;98822;-78
2021/05/22 07:41:50;;;;;;;;;;;;;;;19.43;41.46;100031.91;5030546;27;98207;-78
2021/05/22 07:44:15;;;;;;;;;;;;;;;19.87;40.08;100038.94;5032852;27;98320;-82
2021/05/22 07:46:41;;;;;;;;;;;;;;;20.48;38.95;100028.28;5032096;27;97988;-81
2021/05/22 07:49:10;;;;;;;;;;;;;;;21.06;37.79;100041.91;5035334;27;97274;-82
2021/05/22 07:51:35;;;;;;;;;;;;;;;20.93;37.61;100038.63;5029081;27;99708;-81
2021/05/22 07:54:04;;;;;;;;;;;;;;;21.56;37.00;100031.09;5029970;27;97076;-82
2021/05/22 07:56:30;;;;;;;;;;;;;;;21.34;36.99;100035.75;5030667;27;96929;-81
2021/05/22 07:58:57;;;;;;;;;;;;;;;21.18;36.74;100034.59;5030042;27;98998;-83
2021/05/22 08:01:23;;;;;;;;;;;;;;;21.48;35.55;100031.78;5032334;27;101919;-81
2021/05/22 08:03:49;;;;;;;;;;;;;;;21.62;35.98;100028.69;5033094;27;96960;-80
2021/05/22 08:06:14;;;;;;;;;;;;;;;21.98;35.56;100034.34;5034350;27;97047;-79
2021/05/22 08:08:40;;;;;;;;;;;;;;;22.36;34.77;100038.78;5035579;28;98847;-80
2021/05/22 08:11:06;;;;;;;;;;;;;;;22.37;33.61;100038.66;5028012;27;98922;-81
2021/05/22 08:13:32;;;;;;;;;;;;;;;21.70;35.45;100034.22;5038645;27;96898;-80
2021/05/22 08:15:59;;;;;;;;;;;;;;;22.14;35.11;100021.13;5048751;27;96831;-80
2021/05/22 08:18:25;;;;;;;;;;;;;;;21.77;34.91;100035.34;5028970;27;98996;-80
2021/05/22 08:20:53;;;;;;;;;;;;;;;21.90;34.50;100039.56;5030919;27;98917;-81
2021/05/22 08:23:19;;;;;;;;;;;;;;;21.48;34.94;100034.47;5029893;27;99522;-80
2021/05/22 08:25:44;;;;;;;;;;;;;;;21.40;33.91;100037.00;5029398;27;97807;-79
2021/05/22 08:28:10;;;;;;;;;;;;;;;21.06;34.00;100042.75;5030446;27;98852;-80
2021/05/22 08:30:36;;;;;;;;;;;;;;;20.80;33.87;100044.25;5031553;27;100273;-79
2021/05/22 08:33:03;;;;;;;;;;;;;;;21.24;33.38;100032.22;5031767;27;98552;-80
2021/05/22 08:35:29;;;;;;;;;;;;;;;21.41;32.80;100028.81;5036662;28;97746;-81
2021/05/22 08:37:55;;;;;;;;;;;;;;;21.09;32.84;100025.50;5034717;27;98954;-79
2021/05/22 08:40:26;;;;;;;;;;;;;;;21.26;32.52;100026.69;5031613;27;98938;-80
2021/05/22 08:42:51;;;;;;;;;;;;;;;20.60;32.85;100010.25;5029085;27;97694;-80
2021/05/22 08:45:20;;;;;;;;;;;;;;;21.78;31.97;100009.28;5030945;27;97187;-80
2021/05/22 08:47:48;;;;;;;;;;;;;;;21.84;31.94;100012.25;5027887;27;99730;-80
2021/05/22 08:50:15;;;;;;;;;;;;;;;21.92;31.50;100011.53;5029254;27;98374;-79
2021/05/22 08:52:41;;;;;;;;;;;;;;;22.23;30.82;100017.59;5031904;28;97170;-79
2021/05/22 08:55:07;;;;;;;;;;;;;;;22.03;31.13;100013.25;5033244;27;98842;-79
2021/05/22 08:57:33;;;;;;;;;;;;;;;21.66;31.23;100011.25;5035156;28;98968;-80
2021/05/22 08:59:59;;;;;;;;;;;;;;;21.71;31.03;100000.09;5040736;27;97986;-81
2021/05/22 09:02:25;;;;;;;;;;;;;;;21.37;31.69;100016.66;5042906;27;96618;-79
2021/05/22 09:05:09;;;;;;;;;;;;;;;21.89;30.69;100014.50;5049412;27;95970;-79
2021/05/22 09:07:38;;;;;;;;;;;;;;;21.28;31.55;100003.22;5049722;27;98251;-78
2021/05/22 09:10:05;;;;;;;;;;;;;;;21.93;30.85;100015.06;5055828;27;99366;-78
2021/05/22 09:12:33;;;;;;;;;;;;;;;21.57;30.61;100012.13;5048134;27;96847;-81
2021/05/22 09:14:59;;;;;;;;;;;;;;;21.74;30.59;100014.09;5040919;27;97602;-80
2021/05/22 09:17:25;;;;;;;;;;;;;;;22.30;30.00;100007.06;5040486;28;97963;-81
2021/05/22 09:19:51;;;;;;;;;;;;;;;22.25;30.15;100002.97;5038908;27;98960;-80
2021/05/22 09:22:20;;;;;;;;;;;;;;;22.45;30.11;99994.84;5038308;27;97787;-81
2021/05/22 09:24:55;;;;;;;;;;;;;;;22.99;28.60;99996.69;5043745;27;97739;-80
2021/05/22 09:27:20;;;;;;;;;;;;;;;22.47;29.32;100000.91;5039177;27;98905;-80
2021/05/22 09:29:48;;;;;;;;;;;;;;;22.98;28.41;99995.84;5031354;27;98610;-80
2021/05/22 09:32:14;;;;;;;;;;;;;;;22.37;29.27;100000.13;5037155;28;97042;-80
2021/05/22 09:34:40;;;;;;;;;;;;;;;21.52;30.83;99998.28;5037702;27;98214;-80
2021/05/22 09:37:10;;;;;;;;;;;;;;;21.24;31.00;100005.34;5032857;27;100405;-80
2021/05/22 09:39:44;;;;;;;;;;;;;;;21.24;31.15;100007.19;5036607;27;99065;-78
2021/05/22 09:42:11;;;;;;;;;;;;;;;21.12;31.29;100010.94;5047596;27;96823;-78
2021/05/22 09:44:37;;;;;;;;;;;;;;;20.61;32.04;100003.91;5037446;28;96776;-78
2021/05/22 09:47:03;;;;;;;;;;;;;;;20.78;31.03;100015.81;5036648;27;99396;-78
2021/05/22 09:49:30;;;;;;;;;;;;;;;21.43;30.56;100004.50;5037403;27;98967;-78
2021/05/22 09:51:56;;;;;;;;;;;;;;;21.24;29.96;99999.13;5036058;27;97255;-78
2021/05/22 09:54:37;;;;;;;;;;;;;;;21.28;30.00;99990.63;5037556;27;97212;-79
2021/05/22 09:57:04;;;;;;;;;;;;;;;21.90;29.12;99986.63;5016918;28;98895;-79
2021/05/22 09:59:31;;;;;;;;;;;;;;;22.22;28.04;99983.59;5033125;28;97650;-79
2021/05/22 10:01:58;;;;;;;;;;;;;;;22.21;28.24;99989.97;5038916;27;96806;-79
2021/05/22 10:04:24;;;;;;;;;;;;;;;22.23;28.17;99985.28;5038658;28;96850;-78
2021/05/22 10:06:50;;;;;;;;;;;;;;;22.39;28.16;99981.94;5035535;27;98843;-78
2021/05/22 10:09:17;;;;;;;;;;;;;;;21.68;28.86;99989.63;5038171;27;98923;-78
2021/05/22 10:12:01;;;;;;;;;;;;;;;21.97;28.71;99984.22;5037266;28;96797;-78
2021/05/22 10:14:27;;;;;;;;;;;;;;;21.73;28.53;99992.72;5038897;27;96726;-78
2021/05/22 10:16:54;;;;;;;;;;;;;;;21.78;28.24;99983.25;5031402;27;97784;-79
2021/05/22 10:19:20;;;;;;;;;;;;;;;21.25;29.17;99992.75;5027126;28;98796;-79
2021/05/22 10:21:46;;;;;;;;;;;;;;;21.22;28.85;99995.72;5046912;28;96758;-78
2021/05/22 10:24:12;;;;;;;;;;;;;;;20.26;30.72;100029.28;5049788;27;96796;-81
2021/05/22 10:26:39;;;;;;;;;;;;;;;19.61;32.99;100037.59;5048858;27;97742;-78
2021/05/22 10:29:05;;;;;;;;;;;;;;;19.00;38.75;100031.91;5038555;27;98063;-79
2021/05/22 10:31:37;;;;;;;;;;;;;;;18.63;42.69;100055.47;5048379;28;97151;-79
2021/05/22 10:34:09;;;;;;;;;;;;;;;18.41;44.33;100047.38;5041787;27;96886;-78
2021/05/22 10:36:48;;;;;;;;;;;;;;;18.62;45.02;100045.72;5038244;27;98940;-79
2021/05/22 10:39:47;;;;;;;;;;;;;;;19.57;44.96;100036.13;5043511;27;99171;-79
2021/05/22 10:42:28;;;;;;;;;;;;;;;19.67;43.44;100046.94;5013874;28;97065;-80
2021/05/22 10:44:54;;;;;;;;;;;;;;;19.89;42.14;100046.81;5016331;28;97657;-79
2021/05/22 10:47:21;;;;;;;;;;;;;;;20.60;42.57;100054.06;5008205;28;97858;-81
2021/05/22 10:49:50;;;;;;;;;;;;;;;20.79;41.09;100030.94;5013337;28;97683;-78
2021/05/22 10:52:16;;;;;;;;;;;;;;;20.80;41.11;100035.34;5012537;28;97086;-78
2021/05/22 10:54:58;;;;;;;;;;;;;;;20.63;40.98;100026.06;5033297;27;97207;-79
2021/05/22 10:57:24;;;;;;;;;;;;;;;20.85;40.36;100027.72;5034597;27;99787;-80
2021/05/22 11:00:09;;;;;;;;;;;;;;;20.90;42.15;100023.63;5033043;28;98950;-80
2021/05/22 11:02:35;;;;;;;;;;;;;;;20.44;40.93;100029.53;5025338;28;97020;-81
2021/05/22 11:05:16;;;;;;;;;;;;;;;20.58;41.66;100034.53;5037792;27;96942;-81
2021/05/22 11:07:43;;;;;;;;;;;;;;;20.97;41.04;100031.97;5030628;28;98971;-80
2021/05/22 11:10:08;;;;;;;;;;;;;;;20.88;41.63;100020.22;5031265;27;99127;-83
2021/05/22 11:12:48;;;;;;;;;;;;;;;21.49;38.90;100020.06;5028291;27;97766;-80
2021/05/22 11:15:45;;;;;;;;;;;;;;;21.87;37.39;100025.41;5031748;27;96994;-81
2021/05/22 11:18:13;;;;;;;;;;;;;;;21.98;37.32;100019.06;5034413;28;103042;-81
2021/05/22 11:20:40;;;;;;;;;;;;;;;21.36;35.65;100024.84;5033844;27;97735;-79
2021/05/22 11:23:07;;;;;;;;;;;;;;;20.76;38.13;100040.09;5038444;28;98412;-80
2021/05/22 11:25:48;;;;;;;;;;;;;;;19.46;38.15;100039.72;5045836;27;96833;-79
2021/05/22 11:28:18;;;;;;;;;;;;;;;19.14;38.77;100033.47;5049479;27;99656;-79
2021/05/22 11:30:48;;;;;;;;;;;;;;;19.44;38.83;100041.63;5040122;27;97887;-80
2021/05/22 11:33:29;;;;;;;;;;;;;;;19.92;37.75;100046.56;5029900;27;98550;-80
2021/05/22 11:36:00;;;;;;;;;;;;;;;20.62;36.97;100049.38;5028101;28;96848;-80
2021/05/22 11:38:40;;;;;;;;;;;;;;;21.03;35.32;100043.03;5028728;28;99764;-79
2021/05/22 11:41:06;;;;;;;;;;;;;;;21.81;34.97;100031.34;5029656;28;99097;-80
2021/05/22 11:43:32;;;;;;;;;;;;;;;21.50;34.01;100032.50;5030721;27;97192;-79
2021/05/22 11:45:59;;;;;;;;;;;;;;;20.66;33.95;100032.03;5026883;28;96992;-80
2021/05/22 11:48:27;;;;;;;;;;;;;;;19.82;35.48;100030.41;5031465;28;98966;-80
2021/05/22 11:50:54;;;;;;;;;;;;;;;20.46;35.33;100035.63;5027958;28;97782;-79
2021/05/22 11:53:19;;;;;;;;;;;;;;;20.64;34.92;100030.47;5028244;28;97655;-80
2021/05/22 11:55:53;;;;;;;;;;;;;;;20.94;34.38;100029.56;5033757;27;97216;-80
2021/05/22 11:58:19;;;;;;;;;;;;;;;20.94;34.10;100024.19;5034194;27;98959;-80
2021/05/22 12:00:45;;;;;;;;;;;;;;;21.13;33.24;100010.81;5031160;27;98892;-79
2021/05/22 12:03:21;;;;;;;;;;;;;;;21.56;32.54;100040.00;5029748;28;96860;-80
2021/05/22 12:05:47;;;;;;;;;;;;;;;20.99;32.00;100030.88;5032194;27;96941;-80
2021/05/22 12:08:16;;;;;;;;;;;;;;;21.82;30.25;100026.81;5027132;28;99237;-80
2021/05/22 12:10:43;;;;;;;;;;;;;;;21.65;29.74;100028.41;5029387;27;102122;-80
2021/05/22 12:13:09;;;;;;;;;;;;;;;21.34;29.06;100024.13;5030613;27;96865;-80
2021/05/22 12:15:37;;;;;;;;;;;;;;;21.22;29.66;100022.56;5031352;28;97717;-80
2021/05/22 12:18:03;;;;;;;;;;;;;;;21.91;29.36;100019.75;5032031;28;98954;-81
2021/05/22 12:20:29;;;;;;;;;;;;;;;22.31;28.63;100012.31;5034122;28;97799;-80
2021/05/22 12:22:55;;;;;;;;;;;;;;;21.51;27.95;100028.84;5030897;27;96917;-81
2021/05/22 12:25:21;;;;;;;;;;;;;;;21.27;28.17;100021.16;5033771;27;96995;-80
2021/05/22 12:27:47;;;;;;;;;;;;;;;21.16;28.63;100029.34;5044015;27;98885;-80
2021/05/22 12:30:15;;;;;;;;;;;;;;;21.48;29.17;100007.59;5053276;27;97629;-81
2021/05/22 12:32:41;;;;;;;;;;;;;;;21.07;28.49;100028.31;5046617;28;96831;-79
2021/05/22 12:35:09;;;;;;;;;;;;;;;22.02;27.55;100011.53;5056672;27;97134;-78
2021/05/22 12:37:35;;;;;;;;;;;;;;;21.80;28.10;100029.66;5056846;27;98141;-80
2021/05/22 12:40:02;;;;;;;;;;;;;;;21.79;28.12;100021.75;5056775;27;101845;-79